createdAt,value
2022-10-09T00:03:04.589Z,282.90
2022-10-09T00:08:03.786Z,258.00
2022-10-09T00:13:03.967Z,232.40
2022-10-09T00:18:02.155Z,190.80
2022-10-09T00:23:01.385Z,177.80
2022-10-09T00:28:00.569Z,193.70
2022-10-09T00:33:00.766Z,218.20
2022-10-09T00:37:59.913Z,160.70
2022-10-09T00:42:58.091Z,159.80
2022-10-09T00:47:59.251Z,145.60
2022-10-09T00:52:57.415Z,138.50
2022-10-09T00:57:56.574Z,128.90
2022-10-09T01:02:54.853Z,114.00
2022-10-09T01:07:54.021Z,101.20
2022-10-09T01:12:54.209Z,75.80
2022-10-09T01:17:52.444Z,87.00
2022-10-09T01:22:51.156Z,84.60
2022-10-09T01:27:51.010Z,83.00
2022-10-09T01:32:51.590Z,82.20
2022-10-09T01:37:49.623Z,77.70
2022-10-09T01:42:49.223Z,74.20
2022-10-09T01:47:49.117Z,69.00
2022-10-09T01:52:48.569Z,59.20
2022-10-09T01:57:47.672Z,68.50
2022-10-09T02:02:46.366Z,56.10
2022-10-09T02:07:45.137Z,57.90
2022-10-09T02:12:44.454Z,48.60
2022-10-09T02:17:43.852Z,49.10
2022-10-09T02:22:43.010Z,42.40
2022-10-09T02:27:43.154Z,42.00
2022-10-09T02:32:42.452Z,41.70
2022-10-09T02:37:41.755Z,39.90
2022-10-09T02:42:40.049Z,42.00
2022-10-09T02:47:39.351Z,33.30
2022-10-09T02:52:38.654Z,31.00
2022-10-09T02:57:39.022Z,32.80
2022-10-09T03:02:37.290Z,26.80
2022-10-09T03:07:37.427Z,27.20
2022-10-09T03:12:35.712Z,36.10
2022-10-09T03:17:35.006Z,23.00
2022-10-09T03:22:34.287Z,25.80
2022-10-09T03:27:33.575Z,22.50
2022-10-09T03:32:33.868Z,21.30
2022-10-09T03:37:33.159Z,18.60
2022-10-09T03:42:31.469Z,19.20
2022-10-09T03:47:31.753Z,19.70
2022-10-09T03:52:31.063Z,13.10
2022-10-09T03:57:29.374Z,15.40
2022-10-09T04:02:29.762Z,13.30
2022-10-09T04:07:29.892Z,13.10
2022-10-09T04:12:30.183Z,11.50
2022-10-09T04:17:26.461Z,11.10
2022-10-09T04:22:25.769Z,10.80
2022-10-09T04:27:26.073Z,11.20
2022-10-09T04:32:25.394Z,10.50
2022-10-09T04:37:23.722Z,10.10
2022-10-09T04:42:23.044Z,9.40
2022-10-09T04:47:22.192Z,10.70
2022-10-09T04:52:21.368Z,12.40
2022-10-09T04:57:20.546Z,14.90
2022-10-09T05:02:20.711Z,10.00
2022-10-09T05:07:18.864Z,11.00
2022-10-09T05:12:19.159Z,9.50
2022-10-09T05:17:22.184Z,8.90
2022-10-09T05:22:17.627Z,8.30
2022-10-09T05:27:16.922Z,9.10
2022-10-09T05:32:15.199Z,8.00
2022-10-09T05:37:15.487Z,8.10
2022-10-09T05:42:13.788Z,8.80
2022-10-09T05:47:13.094Z,7.50
2022-10-09T05:52:12.405Z,11.10
2022-10-09T05:57:12.750Z,9.00
2022-10-09T06:02:11.168Z,8.60
2022-10-09T06:07:09.314Z,6.40
2022-10-09T06:12:09.653Z,6.60
2022-10-09T06:17:09.958Z,7.10
2022-10-09T06:22:09.263Z,6.70
2022-10-09T06:27:07.565Z,5.50
2022-10-09T06:32:06.891Z,5.70
2022-10-09T06:37:06.227Z,6.30
2022-10-09T06:42:07.580Z,4.90
2022-10-09T06:47:04.894Z,6.60
2022-10-09T06:52:04.157Z,6.20
2022-10-09T06:57:04.461Z,7.00
2022-10-09T07:02:02.821Z,7.50
2022-10-09T07:07:02.986Z,8.10
2022-10-09T07:12:02.287Z,5.20
2022-10-09T07:17:00.624Z,6.50
2022-10-09T07:22:00.996Z,5.10
2022-10-09T07:26:59.118Z,6.80
2022-10-09T07:31:58.260Z,6.60
2022-10-09T07:36:57.587Z,10.00
2022-10-09T07:41:57.861Z,13.50
2022-10-09T07:46:56.128Z,7.50
2022-10-09T07:51:55.446Z,6.80
2022-10-09T07:56:54.746Z,5.50
2022-10-09T08:01:54.139Z,5.60
2022-10-09T08:06:53.223Z,6.00
2022-10-09T08:11:53.514Z,5.20
2022-10-09T08:16:51.867Z,8.00
2022-10-09T08:21:51.036Z,5.50
2022-10-09T08:26:50.166Z,8.00
2022-10-09T08:31:50.458Z,5.80
2022-10-09T08:36:48.751Z,4.90
2022-10-09T08:41:49.053Z,5.20
2022-10-09T08:46:47.411Z,6.60
2022-10-09T08:51:47.551Z,5.50
2022-10-09T08:56:46.851Z,13.30
2022-10-09T09:01:45.212Z,7.10
2022-10-09T09:06:44.312Z,39.20
2022-10-09T09:11:43.596Z,68.80
2022-10-09T09:16:43.883Z,127.10
2022-10-09T09:21:42.183Z,147.30
2022-10-09T09:26:41.461Z,249.20
2022-10-09T09:31:40.838Z,108.90
2022-10-09T09:36:39.940Z,101.80
2022-10-09T09:41:40.236Z,147.90
2022-10-09T09:46:38.590Z,105.30
2022-10-09T09:51:38.702Z,125.40
2022-10-09T09:56:59.660Z,95.60
2022-10-09T10:01:36.198Z,66.70
2022-10-09T10:06:36.507Z,64.90
2022-10-09T10:11:35.858Z,58.50
2022-10-09T10:16:34.173Z,50.00
2022-10-09T10:21:33.263Z,55.60
2022-10-09T10:26:34.550Z,44.80
2022-10-09T10:31:32.840Z,48.00
2022-10-09T10:36:32.122Z,43.60
2022-10-09T10:41:30.392Z,61.60
2022-10-09T10:46:30.718Z,45.80
2022-10-09T10:51:28.797Z,46.10
2022-10-09T10:56:29.091Z,36.60
2022-10-09T11:01:27.461Z,40.60
2022-10-09T11:06:28.661Z,31.50
2022-10-09T11:11:27.952Z,35.70
2022-10-09T11:16:25.299Z,30.40
2022-10-09T11:21:24.414Z,31.90
2022-10-09T11:26:22.697Z,40.80
2022-10-09T11:31:23.044Z,22.60
2022-10-09T11:36:22.201Z,22.90
2022-10-09T11:41:22.337Z,23.00
2022-10-09T11:46:20.813Z,24.60
2022-10-09T11:51:19.985Z,24.20
2022-10-09T11:56:20.328Z,20.20
2022-10-09T12:01:19.689Z,17.60
2022-10-09T12:06:19.819Z,20.60
2022-10-09T12:11:17.110Z,25.40
2022-10-09T12:16:17.451Z,16.70
2022-10-09T12:21:15.748Z,17.10
2022-10-09T12:26:17.066Z,15.30
2022-10-09T12:31:15.377Z,17.20
2022-10-09T12:36:14.663Z,16.70
2022-10-09T12:41:15.645Z,17.30
2022-10-09T12:46:11.947Z,14.70
2022-10-09T12:51:12.098Z,15.60
2022-10-09T12:56:10.211Z,14.20
2022-10-09T13:01:09.617Z,14.50
2022-10-09T13:06:09.762Z,10.60
2022-10-09T13:11:09.073Z,13.80
2022-10-09T13:16:08.366Z,10.10
2022-10-09T13:21:10.808Z,11.60
2022-10-09T13:26:06.926Z,16.10
2022-10-09T13:31:06.321Z,9.90
2022-10-09T13:36:04.459Z,11.80
2022-10-09T13:41:03.784Z,10.40
2022-10-09T13:46:03.127Z,8.90
2022-10-09T13:51:02.334Z,13.10
2022-10-09T13:56:01.550Z,77.50
2022-10-09T14:01:02.851Z,76.40
2022-10-09T14:05:59.914Z,62.10
2022-10-09T14:10:59.102Z,56.40
2022-10-09T14:15:58.314Z,56.10
2022-10-09T14:20:59.532Z,35.90
2022-10-09T14:25:56.701Z,97.80
2022-10-09T14:30:55.961Z,156.00
2022-10-09T14:35:56.139Z,155.50
2022-10-09T14:40:55.315Z,62.30
2022-10-09T14:45:55.461Z,143.90
2022-10-09T14:50:54.619Z,105.80
2022-10-09T14:55:51.759Z,106.20
2022-10-09T15:00:50.936Z,143.60
2022-10-09T15:05:50.094Z,156.10
2022-10-09T15:10:49.272Z,149.50
2022-10-09T15:15:48.465Z,78.60
2022-10-09T15:20:48.653Z,184.50
2022-10-09T15:25:48.853Z,168.70
2022-10-09T15:30:46.019Z,262.30
2022-10-09T15:35:47.311Z,171.40
2022-10-09T15:40:45.511Z,193.60
2022-10-09T15:45:42.710Z,153.10
2022-10-09T15:50:42.902Z,216.80
2022-10-09T15:55:41.106Z,175.40
2022-10-09T16:00:43.340Z,208.00
2022-10-09T16:05:40.492Z,192.80
2022-10-09T16:10:42.199Z,109.80
2022-10-09T16:15:38.957Z,72.00
2022-10-09T16:20:39.159Z,67.20
2022-10-09T16:25:36.345Z,88.30
2022-10-09T16:30:36.533Z,52.60
2022-10-09T16:35:35.741Z,83.00
2022-10-09T16:41:00.971Z,53.50
2022-10-09T16:45:36.185Z,45.10
2022-10-09T16:50:34.393Z,50.30
2022-10-09T16:55:32.583Z,61.20
2022-10-09T17:00:31.922Z,146.50
2022-10-09T17:05:30.935Z,106.50
2022-10-09T17:10:30.296Z,105.20
2022-10-09T17:15:30.573Z,110.50
2022-10-09T17:20:28.580Z,150.50
2022-10-09T17:25:27.935Z,160.80
2022-10-09T17:30:28.122Z,165.50
2022-10-09T17:35:28.575Z,407.80
2022-10-09T17:40:28.375Z,185.60
2022-10-09T17:45:24.535Z,137.00
2022-10-09T17:50:23.695Z,119.00
2022-10-09T17:55:23.036Z,130.00
2022-10-09T18:00:22.319Z,106.80
2022-10-09T18:05:21.677Z,105.80
2022-10-09T18:10:21.537Z,102.00
2022-10-09T18:15:21.029Z,94.00
2022-10-09T18:20:19.098Z,83.10
2022-10-09T18:25:18.565Z,73.60
2022-10-09T18:30:17.788Z,64.50
2022-10-09T18:35:16.929Z,58.50
2022-10-09T18:40:16.541Z,48.00
2022-10-09T18:45:16.694Z,43.00
2022-10-09T18:50:17.188Z,51.00
2022-10-09T18:55:14.096Z,39.50
2022-10-09T19:00:13.241Z,35.30
2022-10-09T19:05:12.753Z,31.70
2022-10-09T19:10:12.832Z,31.40
2022-10-09T19:15:12.313Z,27.80
2022-10-09T19:20:11.109Z,29.00
2022-10-09T19:25:10.261Z,23.50
2022-10-09T19:30:08.421Z,22.30
2022-10-09T19:35:08.589Z,20.60
2022-10-09T19:40:08.058Z,18.80
2022-10-09T19:45:09.071Z,17.20
2022-10-09T19:50:05.499Z,15.50
2022-10-09T19:55:08.519Z,15.20
2022-10-09T20:00:04.007Z,14.80
2022-10-09T20:05:04.057Z,14.90
2022-10-09T20:10:02.087Z,22.90
2022-10-09T20:15:02.359Z,132.10
2022-10-09T20:20:01.541Z,172.90
2022-10-09T20:25:00.748Z,150.00
2022-10-09T20:29:58.962Z,129.20
2022-10-09T20:34:57.175Z,221.00
2022-10-09T20:39:57.401Z,184.30
2022-10-09T20:44:56.632Z,183.30
2022-10-09T20:49:56.855Z,142.10
2022-10-09T20:54:55.082Z,129.70
2022-10-09T20:59:54.282Z,124.20
2022-10-09T21:04:54.487Z,106.40
2022-10-09T21:09:52.783Z,99.10
2022-10-09T21:14:51.965Z,85.20
2022-10-09T21:19:52.146Z,80.30
2022-10-09T21:24:50.328Z,68.90
2022-10-09T21:29:49.504Z,61.80
2022-10-09T21:34:49.690Z,61.50
2022-10-09T21:39:48.864Z,48.10
2022-10-09T21:44:47.011Z,164.80
2022-10-09T21:49:46.185Z,120.30
2022-10-09T21:54:46.374Z,119.80
2022-10-09T21:59:45.533Z,199.10
2022-10-09T22:04:43.698Z,160.20
2022-10-09T22:09:42.886Z,169.50
2022-10-09T22:14:42.072Z,267.00
2022-10-09T22:19:41.357Z,220.90
2022-10-09T22:24:40.567Z,157.20
2022-10-09T22:29:40.732Z,237.60
2022-10-09T22:34:42.018Z,216.20
2022-10-09T22:39:38.171Z,205.40
2022-10-09T22:44:38.372Z,289.40
2022-10-09T22:49:38.553Z,233.90
2022-10-09T22:54:37.726Z,213.10
2022-10-09T22:59:34.878Z,235.80
2022-10-09T23:04:34.088Z,176.70
2022-10-09T23:09:34.279Z,241.70
2022-10-09T23:14:33.597Z,209.40
2022-10-09T23:19:32.828Z,213.40
2022-10-09T23:24:31.037Z,201.80
2022-10-09T23:29:30.235Z,210.10
2022-10-09T23:34:30.436Z,204.50
2022-10-09T23:39:28.655Z,265.20
2022-10-09T23:44:28.929Z,199.10
2022-10-09T23:49:27.103Z,191.70
2022-10-09T23:54:28.367Z,223.90
2022-10-09T23:59:25.565Z,231.60
